sensor_id;sensor_type;location;lat;lon;timestamp;P1;durP1;ratioP1;P2;durP2;ratioP2
1691;SDS011;843;52.054;8.552;2023-01-19T00:01:34;9.70;;;7.60;;
1691;SDS011;843;52.054;8.552;2023-01-19T00:04:00;12.57;;;10.17;;
1691;SDS011;843;52.054;8.552;2023-01-19T00:06:30;15.00;;;9.30;;
1691;SDS011;843;52.054;8.552;2023-01-19T00:08:57;14.10;;;8.40;;
1691;SDS011;843;52.054;8.552;2023-01-19T00:11:24;13.60;;;7.73;;
1691;SDS011;843;52.054;8.552;2023-01-19T00:13:50;10.30;;;8.50;;
1691;SDS011;843;52.054;8.552;2023-01-19T00:16:19;12.70;;;9.80;;
1691;SDS011;843;52.054;8.552;2023-01-19T00:18:47;15.07;;;9.90;;
1691;SDS011;843;52.054;8.552;2023-01-19T00:21:15;13.60;;;9.60;;
1691;SDS011;843;52.054;8.552;2023-01-19T00:23:42;14.30;;;10.50;;
1691;SDS011;843;52.054;8.552;2023-01-19T00:26:11;12.63;;;9.20;;
1691;SDS011;843;52.054;8.552;2023-01-19T00:28:38;10.73;;;8.70;;
1691;SDS011;843;52.054;8.552;2023-01-19T00:31:04;14.43;;;10.23;;
1691;SDS011;843;52.054;8.552;2023-01-19T00:33:32;18.03;;;10.60;;
1691;SDS011;843;52.054;8.552;2023-01-19T00:35:59;13.73;;;9.63;;
1691;SDS011;843;52.054;8.552;2023-01-19T00:38:26;16.70;;;9.07;;
1691;SDS011;843;52.054;8.552;2023-01-19T00:40:52;13.20;;;9.63;;
1691;SDS011;843;52.054;8.552;2023-01-19T00:43:19;13.50;;;9.90;;
1691;SDS011;843;52.054;8.552;2023-01-19T00:45:44;11.63;;;8.60;;
1691;SDS011;843;52.054;8.552;2023-01-19T00:48:11;13.27;;;9.77;;
1691;SDS011;843;52.054;8.552;2023-01-19T00:50:39;14.20;;;10.80;;
1691;SDS011;843;52.054;8.552;2023-01-19T00:53:05;15.10;;;11.10;;
1691;SDS011;843;52.054;8.552;2023-01-19T00:55:32;13.40;;;10.33;;
1691;SDS011;843;52.054;8.552;2023-01-19T00:57:59;13.20;;;9.50;;
1691;SDS011;843;52.054;8.552;2023-01-19T01:00:26;17.43;;;11.17;;
1691;SDS011;843;52.054;8.552;2023-01-19T01:02:53;14.43;;;10.60;;
1691;SDS011;843;52.054;8.552;2023-01-19T01:05:20;16.00;;;12.00;;
1691;SDS011;843;52.054;8.552;2023-01-19T01:07:48;16.00;;;10.60;;
1691;SDS011;843;52.054;8.552;2023-01-19T01:10:16;17.90;;;10.07;;
1691;SDS011;843;52.054;8.552;2023-01-19T01:12:44;14.23;;;11.40;;
1691;SDS011;843;52.054;8.552;2023-01-19T01:15:11;13.73;;;9.60;;
1691;SDS011;843;52.054;8.552;2023-01-19T01:17:38;13.17;;;10.23;;
1691;SDS011;843;52.054;8.552;2023-01-19T01:20:11;16.47;;;12.13;;
1691;SDS011;843;52.054;8.552;2023-01-19T01:22:42;13.63;;;10.57;;
1691;SDS011;843;52.054;8.552;2023-01-19T01:25:11;21.10;;;11.10;;
1691;SDS011;843;52.054;8.552;2023-01-19T01:27:38;17.20;;;11.00;;
1691;SDS011;843;52.054;8.552;2023-01-19T01:30:05;14.67;;;11.27;;
1691;SDS011;843;52.054;8.552;2023-01-19T01:32:33;15.03;;;11.20;;
1691;SDS011;843;52.054;8.552;2023-01-19T01:35:00;14.37;;;9.83;;
1691;SDS011;843;52.054;8.552;2023-01-19T01:37:26;21.17;;;11.80;;
1691;SDS011;843;52.054;8.552;2023-01-19T01:39:53;17.73;;;11.73;;
1691;SDS011;843;52.054;8.552;2023-01-19T01:42:25;19.03;;;11.90;;
1691;SDS011;843;52.054;8.552;2023-01-19T01:44:54;14.77;;;11.93;;
1691;SDS011;843;52.054;8.552;2023-01-19T01:47:25;16.47;;;11.70;;
1691;SDS011;843;52.054;8.552;2023-01-19T01:49:56;19.57;;;12.10;;
1691;SDS011;843;52.054;8.552;2023-01-19T01:52:27;16.70;;;11.43;;
1691;SDS011;843;52.054;8.552;2023-01-19T01:54:54;23.13;;;12.90;;
1691;SDS011;843;52.054;8.552;2023-01-19T01:57:23;16.33;;;12.13;;
1691;SDS011;843;52.054;8.552;2023-01-19T01:59:51;18.17;;;11.87;;
1691;SDS011;843;52.054;8.552;2023-01-19T02:02:20;19.70;;;12.10;;
1691;SDS011;843;52.054;8.552;2023-01-19T02:05:06;17.53;;;11.43;;
1691;SDS011;843;52.054;8.552;2023-01-19T02:07:36;16.90;;;11.63;;
1691;SDS011;843;52.054;8.552;2023-01-19T02:10:23;17.93;;;11.20;;
1691;SDS011;843;52.054;8.552;2023-01-19T02:13:08;20.47;;;13.03;;
1691;SDS011;843;52.054;8.552;2023-01-19T02:15:44;14.87;;;10.40;;
1691;SDS011;843;52.054;8.552;2023-01-19T02:18:11;14.23;;;11.53;;
1691;SDS011;843;52.054;8.552;2023-01-19T02:20:38;14.30;;;11.20;;
1691;SDS011;843;52.054;8.552;2023-01-19T02:23:06;17.83;;;12.80;;
1691;SDS011;843;52.054;8.552;2023-01-19T02:25:41;17.10;;;11.20;;
1691;SDS011;843;52.054;8.552;2023-01-19T02:28:07;19.47;;;12.40;;
1691;SDS011;843;52.054;8.552;2023-01-19T02:30:34;14.63;;;11.60;;
1691;SDS011;843;52.054;8.552;2023-01-19T02:33:02;20.00;;;12.50;;
1691;SDS011;843;52.054;8.552;2023-01-19T02:35:29;14.67;;;11.60;;
1691;SDS011;843;52.054;8.552;2023-01-19T02:37:56;16.37;;;12.80;;
1691;SDS011;843;52.054;8.552;2023-01-19T02:40:23;17.50;;;12.67;;
1691;SDS011;843;52.054;8.552;2023-01-19T02:42:52;21.07;;;13.40;;
1691;SDS011;843;52.054;8.552;2023-01-19T02:45:22;21.13;;;12.60;;
1691;SDS011;843;52.054;8.552;2023-01-19T02:47:50;15.43;;;11.83;;
1691;SDS011;843;52.054;8.552;2023-01-19T02:50:38;22.33;;;13.20;;
1691;SDS011;843;52.054;8.552;2023-01-19T02:56:28;15.90;;;12.53;;
1691;SDS011;843;52.054;8.552;2023-01-19T02:59:07;15.83;;;12.03;;
1691;SDS011;843;52.054;8.552;2023-01-19T03:01:50;16.37;;;12.77;;
1691;SDS011;843;52.054;8.552;2023-01-19T03:04:37;18.33;;;12.10;;
1691;SDS011;843;52.054;8.552;2023-01-19T03:07:10;15.17;;;10.67;;
1691;SDS011;843;52.054;8.552;2023-01-19T03:09:40;18.30;;;12.97;;
1691;SDS011;843;52.054;8.552;2023-01-19T03:12:09;20.90;;;14.67;;
1691;SDS011;843;52.054;8.552;2023-01-19T03:14:41;20.97;;;12.07;;
1691;SDS011;843;52.054;8.552;2023-01-19T03:17:10;25.33;;;14.50;;
1691;SDS011;843;52.054;8.552;2023-01-19T03:19:38;19.47;;;12.20;;
1691;SDS011;843;52.054;8.552;2023-01-19T03:22:08;16.93;;;12.60;;
1691;SDS011;843;52.054;8.552;2023-01-19T03:24:38;18.07;;;13.23;;
1691;SDS011;843;52.054;8.552;2023-01-19T03:27:08;15.87;;;12.47;;
1691;SDS011;843;52.054;8.552;2023-01-19T03:29:36;26.13;;;12.80;;
1691;SDS011;843;52.054;8.552;2023-01-19T03:32:06;17.63;;;12.40;;
1691;SDS011;843;52.054;8.552;2023-01-19T03:34:35;17.27;;;12.20;;
1691;SDS011;843;52.054;8.552;2023-01-19T03:37:04;17.97;;;12.23;;
1691;SDS011;843;52.054;8.552;2023-01-19T03:39:33;19.67;;;12.33;;
1691;SDS011;843;52.054;8.552;2023-01-19T03:42:00;14.70;;;11.57;;
1691;SDS011;843;52.054;8.552;2023-01-19T03:44:28;17.33;;;12.33;;
1691;SDS011;843;52.054;8.552;2023-01-19T03:46:57;17.23;;;11.43;;
1691;SDS011;843;52.054;8.552;2023-01-19T03:49:25;18.83;;;12.80;;
1691;SDS011;843;52.054;8.552;2023-01-19T03:51:54;18.83;;;12.00;;
1691;SDS011;843;52.054;8.552;2023-01-19T03:54:22;20.03;;;12.40;;
1691;SDS011;843;52.054;8.552;2023-01-19T03:56:49;16.70;;;12.30;;
1691;SDS011;843;52.054;8.552;2023-01-19T03:59:17;22.80;;;12.97;;
1691;SDS011;843;52.054;8.552;2023-01-19T04:01:46;22.03;;;12.63;;
1691;SDS011;843;52.054;8.552;2023-01-19T04:04:13;17.27;;;12.63;;
1691;SDS011;843;52.054;8.552;2023-01-19T04:06:42;16.10;;;11.60;;
1691;SDS011;843;52.054;8.552;2023-01-19T04:09:08;16.10;;;10.40;;
1691;SDS011;843;52.054;8.552;2023-01-19T04:11:35;14.63;;;11.47;;
1691;SDS011;843;52.054;8.552;2023-01-19T04:14:02;18.30;;;10.20;;
1691;SDS011;843;52.054;8.552;2023-01-19T04:16:28;19.70;;;12.47;;
1691;SDS011;843;52.054;8.552;2023-01-19T04:18:55;19.00;;;11.80;;
1691;SDS011;843;52.054;8.552;2023-01-19T04:21:21;14.97;;;12.43;;
1691;SDS011;843;52.054;8.552;2023-01-19T04:23:49;18.23;;;11.93;;
1691;SDS011;843;52.054;8.552;2023-01-19T04:26:17;14.83;;;11.70;;
1691;SDS011;843;52.054;8.552;2023-01-19T04:28:43;16.20;;;11.17;;
1691;SDS011;843;52.054;8.552;2023-01-19T04:31:10;15.90;;;11.80;;
1691;SDS011;843;52.054;8.552;2023-01-19T04:33:37;24.13;;;11.50;;
1691;SDS011;843;52.054;8.552;2023-01-19T04:36:04;16.57;;;10.90;;
1691;SDS011;843;52.054;8.552;2023-01-19T04:38:31;19.27;;;12.30;;
1691;SDS011;843;52.054;8.552;2023-01-19T04:40:59;21.87;;;11.93;;
1691;SDS011;843;52.054;8.552;2023-01-19T04:43:25;19.17;;;11.20;;
1691;SDS011;843;52.054;8.552;2023-01-19T04:45:52;17.40;;;10.83;;
1691;SDS011;843;52.054;8.552;2023-01-19T04:48:18;16.70;;;11.17;;
1691;SDS011;843;52.054;8.552;2023-01-19T04:50:45;13.10;;;9.87;;
1691;SDS011;843;52.054;8.552;2023-01-19T04:53:12;17.40;;;11.13;;
1691;SDS011;843;52.054;8.552;2023-01-19T04:55:40;17.50;;;11.00;;
1691;SDS011;843;52.054;8.552;2023-01-19T04:58:08;18.33;;;11.53;;
1691;SDS011;843;52.054;8.552;2023-01-19T05:00:35;17.13;;;11.27;;
1691;SDS011;843;52.054;8.552;2023-01-19T05:03:01;14.23;;;10.13;;
1691;SDS011;843;52.054;8.552;2023-01-19T05:05:28;14.90;;;11.20;;
1691;SDS011;843;52.054;8.552;2023-01-19T05:07:57;13.40;;;10.00;;
1691;SDS011;843;52.054;8.552;2023-01-19T05:10:23;12.90;;;9.97;;
1691;SDS011;843;52.054;8.552;2023-01-19T05:12:50;18.50;;;9.53;;
1691;SDS011;843;52.054;8.552;2023-01-19T05:15:18;13.37;;;10.03;;
1691;SDS011;843;52.054;8.552;2023-01-19T05:17:44;31.40;;;12.70;;
1691;SDS011;843;52.054;8.552;2023-01-19T05:20:12;17.30;;;11.37;;
1691;SDS011;843;52.054;8.552;2023-01-19T05:22:38;11.37;;;9.20;;
1691;SDS011;843;52.054;8.552;2023-01-19T05:25:05;13.93;;;9.03;;
1691;SDS011;843;52.054;8.552;2023-01-19T05:27:33;19.07;;;10.50;;
1691;SDS011;843;52.054;8.552;2023-01-19T05:30:00;18.67;;;10.80;;
1691;SDS011;843;52.054;8.552;2023-01-19T05:32:30;16.57;;;9.70;;
1691;SDS011;843;52.054;8.552;2023-01-19T05:34:56;16.90;;;10.37;;
1691;SDS011;843;52.054;8.552;2023-01-19T05:37:23;13.40;;;9.40;;
1691;SDS011;843;52.054;8.552;2023-01-19T05:39:50;16.23;;;9.90;;
1691;SDS011;843;52.054;8.552;2023-01-19T05:42:16;15.40;;;9.40;;
1691;SDS011;843;52.054;8.552;2023-01-19T05:44:43;16.43;;;12.23;;
1691;SDS011;843;52.054;8.552;2023-01-19T05:47:10;15.83;;;10.53;;
1691;SDS011;843;52.054;8.552;2023-01-19T05:49:38;15.70;;;10.30;;
1691;SDS011;843;52.054;8.552;2023-01-19T05:52:04;16.13;;;10.03;;
1691;SDS011;843;52.054;8.552;2023-01-19T05:54:31;14.50;;;10.07;;
1691;SDS011;843;52.054;8.552;2023-01-19T05:56:58;13.80;;;8.67;;
1691;SDS011;843;52.054;8.552;2023-01-19T05:59:25;14.93;;;11.50;;
1691;SDS011;843;52.054;8.552;2023-01-19T06:01:52;13.97;;;9.80;;
1691;SDS011;843;52.054;8.552;2023-01-19T06:04:19;12.20;;;9.30;;
1691;SDS011;843;52.054;8.552;2023-01-19T06:06:47;18.63;;;10.10;;
1691;SDS011;843;52.054;8.552;2023-01-19T06:09:14;17.27;;;9.50;;
1691;SDS011;843;52.054;8.552;2023-01-19T06:11:42;15.50;;;9.47;;
1691;SDS011;843;52.054;8.552;2023-01-19T06:14:09;14.23;;;9.93;;
1691;SDS011;843;52.054;8.552;2023-01-19T06:16:35;14.77;;;10.60;;
1691;SDS011;843;52.054;8.552;2023-01-19T06:19:02;14.37;;;10.97;;
1691;SDS011;843;52.054;8.552;2023-01-19T06:21:29;16.03;;;10.10;;
1691;SDS011;843;52.054;8.552;2023-01-19T06:23:57;14.30;;;9.37;;
1691;SDS011;843;52.054;8.552;2023-01-19T06:26:24;15.10;;;10.43;;
1691;SDS011;843;52.054;8.552;2023-01-19T06:28:51;9.90;;;8.57;;
1691;SDS011;843;52.054;8.552;2023-01-19T06:31:17;13.87;;;10.30;;
1691;SDS011;843;52.054;8.552;2023-01-19T06:33:44;14.10;;;9.97;;
1691;SDS011;843;52.054;8.552;2023-01-19T06:36:10;12.30;;;9.53;;
1691;SDS011;843;52.054;8.552;2023-01-19T06:38:37;11.30;;;9.30;;
1691;SDS011;843;52.054;8.552;2023-01-19T06:41:05;11.50;;;9.13;;
1691;SDS011;843;52.054;8.552;2023-01-19T06:43:32;14.07;;;10.20;;
1691;SDS011;843;52.054;8.552;2023-01-19T06:45:59;14.80;;;10.00;;
1691;SDS011;843;52.054;8.552;2023-01-19T06:48:26;12.33;;;9.60;;
1691;SDS011;843;52.054;8.552;2023-01-19T06:50:53;11.90;;;10.00;;
1691;SDS011;843;52.054;8.552;2023-01-19T06:53:19;12.40;;;10.13;;
1691;SDS011;843;52.054;8.552;2023-01-19T06:55:46;16.13;;;10.50;;
1691;SDS011;843;52.054;8.552;2023-01-19T06:58:14;13.50;;;10.60;;
1691;SDS011;843;52.054;8.552;2023-01-19T07:00:41;11.90;;;9.90;;
1691;SDS011;843;52.054;8.552;2023-01-19T07:03:08;10.80;;;9.10;;
1691;SDS011;843;52.054;8.552;2023-01-19T07:05:35;12.23;;;9.40;;
1691;SDS011;843;52.054;8.552;2023-01-19T07:08:01;13.83;;;10.33;;
1691;SDS011;843;52.054;8.552;2023-01-19T07:10:28;12.27;;;9.13;;
1691;SDS011;843;52.054;8.552;2023-01-19T07:12:55;11.63;;;10.20;;
1691;SDS011;843;52.054;8.552;2023-01-19T07:15:23;11.87;;;9.03;;
1691;SDS011;843;52.054;8.552;2023-01-19T07:17:50;11.30;;;9.43;;
1691;SDS011;843;52.054;8.552;2023-01-19T07:20:17;12.17;;;9.60;;
1691;SDS011;843;52.054;8.552;2023-01-19T07:22:43;12.83;;;9.70;;
1691;SDS011;843;52.054;8.552;2023-01-19T07:25:11;9.33;;;7.43;;
1691;SDS011;843;52.054;8.552;2023-01-19T07:27:37;9.40;;;8.30;;
1691;SDS011;843;52.054;8.552;2023-01-19T07:30:05;9.63;;;8.53;;
1691;SDS011;843;52.054;8.552;2023-01-19T07:32:34;9.23;;;8.23;;
1691;SDS011;843;52.054;8.552;2023-01-19T07:35:01;8.97;;;7.33;;
1691;SDS011;843;52.054;8.552;2023-01-19T07:37:27;9.33;;;7.80;;
1691;SDS011;843;52.054;8.552;2023-01-19T07:39:54;8.97;;;8.07;;
1691;SDS011;843;52.054;8.552;2023-01-19T07:42:21;9.43;;;8.47;;
1691;SDS011;843;52.054;8.552;2023-01-19T07:44:47;9.70;;;8.63;;
1691;SDS011;843;52.054;8.552;2023-01-19T07:47:14;11.23;;;8.73;;
1691;SDS011;843;52.054;8.552;2023-01-19T07:49:42;9.07;;;8.17;;
1691;SDS011;843;52.054;8.552;2023-01-19T07:52:08;10.40;;;8.50;;
1691;SDS011;843;52.054;8.552;2023-01-19T07:54:36;13.10;;;10.50;;
1691;SDS011;843;52.054;8.552;2023-01-19T07:57:03;9.83;;;8.83;;
1691;SDS011;843;52.054;8.552;2023-01-19T07:59:30;10.80;;;8.23;;
1691;SDS011;843;52.054;8.552;2023-01-19T08:01:56;10.43;;;8.90;;
1691;SDS011;843;52.054;8.552;2023-01-19T08:04:24;9.30;;;7.83;;
1691;SDS011;843;52.054;8.552;2023-01-19T08:06:52;8.63;;;7.70;;
1691;SDS011;843;52.054;8.552;2023-01-19T08:09:19;12.30;;;9.43;;
1691;SDS011;843;52.054;8.552;2023-01-19T08:11:46;9.03;;;8.10;;
1691;SDS011;843;52.054;8.552;2023-01-19T08:14:12;10.50;;;9.00;;
1691;SDS011;843;52.054;8.552;2023-01-19T08:16:39;10.63;;;9.53;;
1691;SDS011;843;52.054;8.552;2023-01-19T08:19:06;10.93;;;9.23;;
1691;SDS011;843;52.054;8.552;2023-01-19T08:21:32;13.97;;;10.40;;
1691;SDS011;843;52.054;8.552;2023-01-19T08:24:01;11.30;;;10.10;;
1691;SDS011;843;52.054;8.552;2023-01-19T08:26:28;9.80;;;8.80;;
1691;SDS011;843;52.054;8.552;2023-01-19T08:28:57;11.97;;;9.40;;
1691;SDS011;843;52.054;8.552;2023-01-19T08:31:25;12.00;;;10.10;;
1691;SDS011;843;52.054;8.552;2023-01-19T08:33:52;11.30;;;9.43;;
1691;SDS011;843;52.054;8.552;2023-01-19T08:36:19;12.10;;;10.33;;
1691;SDS011;843;52.054;8.552;2023-01-19T08:38:46;11.57;;;10.03;;
1691;SDS011;843;52.054;8.552;2023-01-19T08:41:15;12.40;;;9.97;;
1691;SDS011;843;52.054;8.552;2023-01-19T08:43:42;11.90;;;10.47;;
1691;SDS011;843;52.054;8.552;2023-01-19T08:46:09;11.47;;;10.00;;
1691;SDS011;843;52.054;8.552;2023-01-19T08:48:36;12.57;;;9.63;;
1691;SDS011;843;52.054;8.552;2023-01-19T08:51:03;10.80;;;8.83;;
1691;SDS011;843;52.054;8.552;2023-01-19T08:53:29;10.20;;;8.80;;
1691;SDS011;843;52.054;8.552;2023-01-19T08:55:56;10.30;;;9.20;;
1691;SDS011;843;52.054;8.552;2023-01-19T08:58:25;10.80;;;9.70;;
1691;SDS011;843;52.054;8.552;2023-01-19T09:00:52;9.70;;;7.97;;
1691;SDS011;843;52.054;8.552;2023-01-19T09:03:19;10.80;;;7.60;;
1691;SDS011;843;52.054;8.552;2023-01-19T09:05:46;11.40;;;9.50;;
1691;SDS011;843;52.054;8.552;2023-01-19T09:08:14;10.17;;;8.67;;
1691;SDS011;843;52.054;8.552;2023-01-19T09:10:43;10.47;;;8.70;;
1691;SDS011;843;52.054;8.552;2023-01-19T09:13:11;11.27;;;9.60;;
1691;SDS011;843;52.054;8.552;2023-01-19T09:15:40;11.20;;;10.00;;
1691;SDS011;843;52.054;8.552;2023-01-19T09:18:08;11.47;;;9.50;;
1691;SDS011;843;52.054;8.552;2023-01-19T09:20:37;11.33;;;9.30;;
1691;SDS011;843;52.054;8.552;2023-01-19T09:23:04;12.60;;;10.03;;
1691;SDS011;843;52.054;8.552;2023-01-19T09:25:31;11.80;;;9.80;;
1691;SDS011;843;52.054;8.552;2023-01-19T09:27:57;12.37;;;9.93;;
1691;SDS011;843;52.054;8.552;2023-01-19T09:30:24;9.13;;;8.00;;
1691;SDS011;843;52.054;8.552;2023-01-19T09:32:53;11.00;;;9.40;;
1691;SDS011;843;52.054;8.552;2023-01-19T09:35:19;9.33;;;8.30;;
1691;SDS011;843;52.054;8.552;2023-01-19T09:37:46;11.07;;;8.37;;
1691;SDS011;843;52.054;8.552;2023-01-19T09:40:13;11.00;;;8.57;;
1691;SDS011;843;52.054;8.552;2023-01-19T09:42:40;11.87;;;9.80;;
1691;SDS011;843;52.054;8.552;2023-01-19T09:45:10;8.47;;;7.53;;
1691;SDS011;843;52.054;8.552;2023-01-19T09:47:40;10.17;;;8.57;;
1691;SDS011;843;52.054;8.552;2023-01-19T09:50:11;11.60;;;8.50;;
1691;SDS011;843;52.054;8.552;2023-01-19T09:52:46;10.40;;;8.63;;
1691;SDS011;843;52.054;8.552;2023-01-19T09:55:21;12.70;;;9.30;;
1691;SDS011;843;52.054;8.552;2023-01-19T09:57:50;15.13;;;10.30;;
1691;SDS011;843;52.054;8.552;2023-01-19T10:00:17;13.57;;;10.43;;
1691;SDS011;843;52.054;8.552;2023-01-19T10:02:45;13.00;;;9.97;;
1691;SDS011;843;52.054;8.552;2023-01-19T10:05:22;12.93;;;9.73;;
1691;SDS011;843;52.054;8.552;2023-01-19T10:07:55;12.43;;;10.53;;
1691;SDS011;843;52.054;8.552;2023-01-19T10:10:30;16.90;;;11.73;;
1691;SDS011;843;52.054;8.552;2023-01-19T10:13:00;14.90;;;10.70;;
1691;SDS011;843;52.054;8.552;2023-01-19T10:15:36;15.30;;;10.53;;
1691;SDS011;843;52.054;8.552;2023-01-19T10:18:11;10.60;;;8.47;;
1691;SDS011;843;52.054;8.552;2023-01-19T10:20:43;12.57;;;9.83;;
1691;SDS011;843;52.054;8.552;2023-01-19T10:23:17;12.13;;;9.47;;
1691;SDS011;843;52.054;8.552;2023-01-19T10:25:48;10.37;;;7.57;;
1691;SDS011;843;52.054;8.552;2023-01-19T10:28:15;9.40;;;8.20;;
1691;SDS011;843;52.054;8.552;2023-01-19T10:30:48;9.27;;;7.60;;
1691;SDS011;843;52.054;8.552;2023-01-19T10:33:15;7.97;;;6.97;;
1691;SDS011;843;52.054;8.552;2023-01-19T10:35:43;7.63;;;6.63;;
1691;SDS011;843;52.054;8.552;2023-01-19T10:38:12;8.10;;;6.30;;
1691;SDS011;843;52.054;8.552;2023-01-19T10:40:41;8.30;;;7.50;;
1691;SDS011;843;52.054;8.552;2023-01-19T10:43:29;6.97;;;5.90;;
1691;SDS011;843;52.054;8.552;2023-01-19T10:46:01;7.60;;;6.07;;
1691;SDS011;843;52.054;8.552;2023-01-19T10:48:35;7.30;;;6.57;;
1691;SDS011;843;52.054;8.552;2023-01-19T10:51:04;8.37;;;6.00;;
1691;SDS011;843;52.054;8.552;2023-01-19T10:53:31;9.00;;;6.60;;
1691;SDS011;843;52.054;8.552;2023-01-19T10:56:11;7.60;;;6.90;;
1691;SDS011;843;52.054;8.552;2023-01-19T10:58:40;6.83;;;5.70;;
1691;SDS011;843;52.054;8.552;2023-01-19T11:01:17;7.00;;;5.70;;
1691;SDS011;843;52.054;8.552;2023-01-19T11:03:45;7.47;;;5.73;;
1691;SDS011;843;52.054;8.552;2023-01-19T11:06:19;8.10;;;5.70;;
1691;SDS011;843;52.054;8.552;2023-01-19T11:08:49;6.20;;;5.60;;
1691;SDS011;843;52.054;8.552;2023-01-19T11:11:16;5.23;;;4.63;;
1691;SDS011;843;52.054;8.552;2023-01-19T11:13:44;5.20;;;4.63;;
1691;SDS011;843;52.054;8.552;2023-01-19T11:16:14;7.60;;;6.07;;
1691;SDS011;843;52.054;8.552;2023-01-19T11:18:43;10.17;;;8.10;;
1691;SDS011;843;52.054;8.552;2023-01-19T11:21:11;12.10;;;7.30;;
1691;SDS011;843;52.054;8.552;2023-01-19T11:23:43;13.10;;;9.10;;
1691;SDS011;843;52.054;8.552;2023-01-19T11:26:12;19.17;;;10.53;;
1691;SDS011;843;52.054;8.552;2023-01-19T11:28:41;23.10;;;10.60;;
1691;SDS011;843;52.054;8.552;2023-01-19T11:31:18;14.83;;;10.67;;
1691;SDS011;843;52.054;8.552;2023-01-19T11:33:53;17.87;;;11.00;;
1691;SDS011;843;52.054;8.552;2023-01-19T11:36:22;22.93;;;11.73;;
1691;SDS011;843;52.054;8.552;2023-01-19T11:38:51;18.67;;;11.47;;
1691;SDS011;843;52.054;8.552;2023-01-19T11:41:20;19.23;;;11.67;;
1691;SDS011;843;52.054;8.552;2023-01-19T11:43:48;18.53;;;11.73;;
1691;SDS011;843;52.054;8.552;2023-01-19T11:46:16;17.63;;;10.43;;
1691;SDS011;843;52.054;8.552;2023-01-19T11:48:45;16.50;;;11.33;;
1691;SDS011;843;52.054;8.552;2023-01-19T11:51:13;15.00;;;11.80;;
1691;SDS011;843;52.054;8.552;2023-01-19T11:53:42;17.90;;;11.47;;
1691;SDS011;843;52.054;8.552;2023-01-19T11:56:13;19.33;;;11.60;;
1691;SDS011;843;52.054;8.552;2023-01-19T11:58:41;16.30;;;10.43;;
1691;SDS011;843;52.054;8.552;2023-01-19T12:01:13;23.73;;;12.80;;
1691;SDS011;843;52.054;8.552;2023-01-19T12:03:45;17.23;;;10.40;;
1691;SDS011;843;52.054;8.552;2023-01-19T12:06:15;23.63;;;11.57;;
1691;SDS011;843;52.054;8.552;2023-01-19T12:08:44;13.80;;;9.83;;
1691;SDS011;843;52.054;8.552;2023-01-19T12:11:15;13.33;;;10.40;;
1691;SDS011;843;52.054;8.552;2023-01-19T12:13:43;19.83;;;9.33;;
1691;SDS011;843;52.054;8.552;2023-01-19T12:16:12;13.30;;;9.60;;
1691;SDS011;843;52.054;8.552;2023-01-19T12:18:46;18.80;;;10.33;;
1691;SDS011;843;52.054;8.552;2023-01-19T12:21:15;18.53;;;9.80;;
1691;SDS011;843;52.054;8.552;2023-01-19T12:23:45;16.17;;;8.53;;
1691;SDS011;843;52.054;8.552;2023-01-19T12:26:23;15.03;;;8.93;;
1691;SDS011;843;52.054;8.552;2023-01-19T12:28:53;16.90;;;8.50;;
1691;SDS011;843;52.054;8.552;2023-01-19T12:31:22;15.17;;;8.33;;
1691;SDS011;843;52.054;8.552;2023-01-19T12:33:49;13.17;;;8.50;;
1691;SDS011;843;52.054;8.552;2023-01-19T12:36:35;16.60;;;8.93;;
1691;SDS011;843;52.054;8.552;2023-01-19T12:39:04;19.13;;;9.57;;
1691;SDS011;843;52.054;8.552;2023-01-19T12:41:45;18.03;;;10.20;;
1691;SDS011;843;52.054;8.552;2023-01-19T12:44:19;17.70;;;8.67;;
1691;SDS011;843;52.054;8.552;2023-01-19T12:46:48;14.43;;;7.97;;
1691;SDS011;843;52.054;8.552;2023-01-19T12:49:20;20.60;;;9.30;;
1691;SDS011;843;52.054;8.552;2023-01-19T12:51:50;15.40;;;9.03;;
1691;SDS011;843;52.054;8.552;2023-01-19T12:54:21;21.37;;;8.27;;
1691;SDS011;843;52.054;8.552;2023-01-19T12:56:56;19.07;;;8.20;;
1691;SDS011;843;52.054;8.552;2023-01-19T12:59:24;12.17;;;7.70;;
1691;SDS011;843;52.054;8.552;2023-01-19T13:13:43;16.40;;;8.93;;
1691;SDS011;843;52.054;8.552;2023-01-19T13:19:14;22.40;;;11.10;;
1691;SDS011;843;52.054;8.552;2023-01-19T13:21:42;17.33;;;9.60;;
1691;SDS011;843;52.054;8.552;2023-01-19T13:24:10;29.47;;;11.37;;
1691;SDS011;843;52.054;8.552;2023-01-19T13:26:39;15.47;;;9.70;;
1691;SDS011;843;52.054;8.552;2023-01-19T13:29:12;15.23;;;11.00;;
1691;SDS011;843;52.054;8.552;2023-01-19T13:31:41;15.30;;;9.43;;
1691;SDS011;843;52.054;8.552;2023-01-19T13:34:09;18.80;;;10.23;;
1691;SDS011;843;52.054;8.552;2023-01-19T13:36:37;21.90;;;10.87;;
1691;SDS011;843;52.054;8.552;2023-01-19T13:39:06;21.20;;;10.90;;
1691;SDS011;843;52.054;8.552;2023-01-19T13:41:39;20.27;;;11.77;;
1691;SDS011;843;52.054;8.552;2023-01-19T13:44:07;18.80;;;10.37;;
1691;SDS011;843;52.054;8.552;2023-01-19T13:46:38;19.10;;;11.87;;
1691;SDS011;843;52.054;8.552;2023-01-19T13:49:11;16.27;;;10.90;;
1691;SDS011;843;52.054;8.552;2023-01-19T13:51:41;19.37;;;12.80;;
1691;SDS011;843;52.054;8.552;2023-01-19T13:54:13;22.20;;;12.53;;
1691;SDS011;843;52.054;8.552;2023-01-19T13:56:40;22.03;;;12.80;;
1691;SDS011;843;52.054;8.552;2023-01-19T13:59:13;16.63;;;13.33;;
1691;SDS011;843;52.054;8.552;2023-01-19T14:01:40;24.13;;;13.90;;
1691;SDS011;843;52.054;8.552;2023-01-19T14:04:24;19.40;;;12.93;;
1691;SDS011;843;52.054;8.552;2023-01-19T14:06:51;18.27;;;12.30;;
1691;SDS011;843;52.054;8.552;2023-01-19T14:09:20;22.40;;;12.70;;
1691;SDS011;843;52.054;8.552;2023-01-19T14:12:02;23.63;;;13.07;;
1691;SDS011;843;52.054;8.552;2023-01-19T14:14:32;25.30;;;14.10;;
1691;SDS011;843;52.054;8.552;2023-01-19T14:16:59;22.43;;;14.13;;
1691;SDS011;843;52.054;8.552;2023-01-19T14:19:25;22.83;;;13.53;;
1691;SDS011;843;52.054;8.552;2023-01-19T14:21:59;18.57;;;13.87;;
1691;SDS011;843;52.054;8.552;2023-01-19T14:24:27;21.93;;;13.90;;
1691;SDS011;843;52.054;8.552;2023-01-19T14:27:07;19.97;;;14.67;;
1691;SDS011;843;52.054;8.552;2023-01-19T14:29:39;22.07;;;13.83;;
1691;SDS011;843;52.054;8.552;2023-01-19T14:32:11;18.40;;;13.73;;
1691;SDS011;843;52.054;8.552;2023-01-19T14:34:40;25.03;;;13.40;;
1691;SDS011;843;52.054;8.552;2023-01-19T14:37:14;23.97;;;14.07;;
1691;SDS011;843;52.054;8.552;2023-01-19T14:39:51;22.60;;;12.40;;
1691;SDS011;843;52.054;8.552;2023-01-19T14:42:22;22.00;;;12.83;;
1691;SDS011;843;52.054;8.552;2023-01-19T14:44:54;19.03;;;12.63;;
1691;SDS011;843;52.054;8.552;2023-01-19T14:47:34;24.90;;;13.07;;
1691;SDS011;843;52.054;8.552;2023-01-19T14:50:04;18.10;;;12.83;;
1691;SDS011;843;52.054;8.552;2023-01-19T14:52:33;18.93;;;12.50;;
1691;SDS011;843;52.054;8.552;2023-01-19T14:55:02;24.53;;;14.53;;
1691;SDS011;843;52.054;8.552;2023-01-19T14:57:32;21.17;;;13.70;;
1691;SDS011;843;52.054;8.552;2023-01-19T15:00:01;20.43;;;12.37;;
1691;SDS011;843;52.054;8.552;2023-01-19T15:02:31;27.90;;;14.30;;
1691;SDS011;843;52.054;8.552;2023-01-19T15:04:58;27.20;;;13.50;;
1691;SDS011;843;52.054;8.552;2023-01-19T15:07:25;26.13;;;13.80;;
1691;SDS011;843;52.054;8.552;2023-01-19T15:09:52;18.50;;;13.73;;
1691;SDS011;843;52.054;8.552;2023-01-19T15:12:18;26.57;;;14.47;;
1691;SDS011;843;52.054;8.552;2023-01-19T15:14:48;31.43;;;16.73;;
1691;SDS011;843;52.054;8.552;2023-01-19T15:17:16;22.47;;;13.60;;
1691;SDS011;843;52.054;8.552;2023-01-19T15:19:49;27.33;;;14.47;;
1691;SDS011;843;52.054;8.552;2023-01-19T15:22:17;26.50;;;13.83;;
1691;SDS011;843;52.054;8.552;2023-01-19T15:24:43;30.53;;;14.60;;
1691;SDS011;843;52.054;8.552;2023-01-19T15:27:10;28.70;;;16.30;;
1691;SDS011;843;52.054;8.552;2023-01-19T15:29:37;27.83;;;18.63;;
1691;SDS011;843;52.054;8.552;2023-01-19T15:32:05;23.67;;;14.57;;
1691;SDS011;843;52.054;8.552;2023-01-19T15:34:35;24.00;;;15.00;;
1691;SDS011;843;52.054;8.552;2023-01-19T15:37:02;25.53;;;14.57;;